createdAt,value
2023-04-16T00:02:37.045Z,100.00
2023-04-16T00:05:40.245Z,100.00
2023-04-16T00:08:43.834Z,100.00
2023-04-16T00:11:46.834Z,100.00
2023-04-16T00:14:49.569Z,100.00
2023-04-16T00:17:52.755Z,100.00
2023-04-16T00:20:55.549Z,100.00
2023-04-16T00:23:58.404Z,100.00
2023-04-16T00:27:01.690Z,100.00
2023-04-16T00:30:07.376Z,100.00
2023-04-16T00:33:10.147Z,100.00
2023-04-16T00:36:13.086Z,100.00
2023-04-16T00:39:16.031Z,100.00
2023-04-16T00:42:19.401Z,100.00
2023-04-16T00:45:22.077Z,100.00
2023-04-16T00:48:27.861Z,100.00
2023-04-16T00:51:31.856Z,100.00
2023-04-16T00:54:34.880Z,100.00
2023-04-16T00:57:37.504Z,100.00
2023-04-16T01:00:41.694Z,100.00
2023-04-16T01:03:47.180Z,100.00
2023-04-16T01:06:51.086Z,100.00
2023-04-16T01:09:53.779Z,100.00
2023-04-16T01:12:56.756Z,100.00
2023-04-16T01:16:00.159Z,100.00
2023-04-16T01:19:03.698Z,100.00
2023-04-16T01:22:07.237Z,100.00
2023-04-16T01:25:14.699Z,100.00
2023-04-16T01:28:17.437Z,100.00
2023-04-16T01:31:20.856Z,100.00
2023-04-16T01:34:24.001Z,100.00
2023-04-16T01:37:27.092Z,100.00
2023-04-16T01:40:29.872Z,100.00
2023-04-16T01:43:32.879Z,100.00
2023-04-16T01:46:36.172Z,100.00
2023-04-16T01:49:39.583Z,100.00
2023-04-16T01:52:42.409Z,100.00
2023-04-16T01:55:45.386Z,100.00
2023-04-16T01:58:47.986Z,100.00
2023-04-16T02:01:51.451Z,100.00
2023-04-16T02:04:54.920Z,100.00
2023-04-16T02:07:57.631Z,100.00
2023-04-16T02:11:01.051Z,100.00
2023-04-16T02:14:03.798Z,100.00
2023-04-16T02:17:06.782Z,100.00
2023-04-16T02:20:10.956Z,100.00
2023-04-16T02:23:17.488Z,100.00
2023-04-16T02:26:20.928Z,100.00
2023-04-16T02:29:24.780Z,100.00
2023-04-16T02:32:27.942Z,100.00
2023-04-16T02:35:31.798Z,100.00
2023-04-16T02:38:34.681Z,100.00
2023-04-16T02:41:38.626Z,100.00
2023-04-16T02:44:41.508Z,100.00
2023-04-16T02:47:44.682Z,100.00
2023-04-16T02:50:47.679Z,100.00
2023-04-16T02:53:50.651Z,100.00
2023-04-16T02:56:53.274Z,100.00
2023-04-16T02:59:56.436Z,100.00
2023-04-16T03:02:59.334Z,100.00
2023-04-16T03:06:02.440Z,100.00
2023-04-16T03:09:05.502Z,100.00
2023-04-16T03:12:08.449Z,100.00
2023-04-16T03:15:11.415Z,100.00
2023-04-16T03:18:14.404Z,100.00
2023-04-16T03:21:17.193Z,100.00
2023-04-16T03:24:20.274Z,100.00
2023-04-16T03:27:24.664Z,100.00
2023-04-16T03:30:27.686Z,100.00
2023-04-16T03:33:30.859Z,100.00
2023-04-16T03:36:33.832Z,100.00
2023-04-16T03:39:36.530Z,100.00
2023-04-16T03:42:39.519Z,100.00
2023-04-16T03:45:47.975Z,100.00
2023-04-16T03:48:51.262Z,100.00
2023-04-16T03:51:54.438Z,100.00
2023-04-16T03:54:57.334Z,100.00
2023-04-16T03:58:03.141Z,100.00
2023-04-16T04:01:07.074Z,100.00
2023-04-16T04:04:11.985Z,100.00
2023-04-16T04:07:16.319Z,100.00
2023-04-16T04:10:19.415Z,100.00
2023-04-16T04:13:22.060Z,100.00
2023-04-16T04:16:25.427Z,100.00
2023-04-16T04:19:28.127Z,100.00
2023-04-16T04:22:31.268Z,100.00
2023-04-16T04:25:33.971Z,100.00
2023-04-16T04:28:36.971Z,100.00
2023-04-16T04:31:40.376Z,100.00
2023-04-16T04:34:43.592Z,100.00
2023-04-16T04:37:46.527Z,100.00
2023-04-16T04:40:49.792Z,100.00
2023-04-16T04:43:52.838Z,100.00
2023-04-16T04:46:56.411Z,100.00
2023-04-16T04:49:59.031Z,100.00
2023-04-16T04:53:02.374Z,100.00
2023-04-16T04:56:11.797Z,100.00
2023-04-16T04:59:15.980Z,100.00
2023-04-16T05:02:18.778Z,100.00
2023-04-16T05:05:22.056Z,100.00
2023-04-16T05:08:25.029Z,100.00
2023-04-16T05:11:28.117Z,100.00
2023-04-16T05:14:30.862Z,100.00
2023-04-16T05:17:33.923Z,100.00
2023-04-16T05:20:37.902Z,100.00
2023-04-16T05:23:40.912Z,100.00
2023-04-16T05:26:43.541Z,100.00
2023-04-16T05:29:46.422Z,100.00
2023-04-16T05:32:49.628Z,100.00
2023-04-16T05:35:52.695Z,100.00
2023-04-16T05:38:55.664Z,100.00
2023-04-16T05:41:58.702Z,100.00
2023-04-16T05:45:04.456Z,100.00
2023-04-16T05:48:09.324Z,100.00
2023-04-16T05:51:12.117Z,100.00
2023-04-16T05:54:15.039Z,100.00
2023-04-16T05:57:17.628Z,100.00
2023-04-16T06:00:21.062Z,100.00
2023-04-16T06:03:24.180Z,100.00
2023-04-16T06:06:27.804Z,100.00
2023-04-16T06:09:31.037Z,100.00
2023-04-16T06:12:34.108Z,100.00
2023-04-16T06:15:37.021Z,100.00
2023-04-16T06:18:39.750Z,100.00
2023-04-16T06:21:44.768Z,100.00
2023-04-16T06:24:47.407Z,100.00
2023-04-16T06:27:50.298Z,100.00
2023-04-16T06:30:53.031Z,100.00
2023-04-16T06:33:56.010Z,100.00
2023-04-16T06:36:58.648Z,100.00
2023-04-16T06:40:01.994Z,100.00
2023-04-16T06:43:04.797Z,100.00
2023-04-16T06:46:07.778Z,100.00
2023-04-16T06:49:10.974Z,100.00
2023-04-16T06:52:14.167Z,100.00
2023-04-16T06:55:16.809Z,100.00
2023-04-16T06:58:19.840Z,100.00
2023-04-16T07:01:22.518Z,100.00
2023-04-16T07:04:25.587Z,100.00
2023-04-16T07:07:28.397Z,100.00
2023-04-16T07:10:31.736Z,100.00
2023-04-16T07:13:34.521Z,100.00
2023-04-16T07:16:38.171Z,100.00
2023-04-16T07:19:41.084Z,100.00
2023-04-16T07:22:44.253Z,100.00
2023-04-16T07:25:46.924Z,100.00
2023-04-16T07:28:49.851Z,100.00
2023-04-16T07:31:52.856Z,100.00
2023-04-16T07:34:56.580Z,100.00
2023-04-16T07:37:59.450Z,100.00
2023-04-16T07:41:02.536Z,100.00
2023-04-16T07:44:05.443Z,100.00
2023-04-16T07:47:08.389Z,100.00
2023-04-16T07:50:11.890Z,100.00
2023-04-16T07:53:14.945Z,100.00
2023-04-16T07:56:17.559Z,100.00
2023-04-16T07:59:23.511Z,100.00
2023-04-16T08:02:27.563Z,100.00
2023-04-16T08:05:30.933Z,100.00
2023-04-16T08:08:33.698Z,100.00
2023-04-16T08:11:36.740Z,100.00
2023-04-16T08:14:41.285Z,100.00
2023-04-16T08:17:44.756Z,100.00
2023-04-16T08:20:47.471Z,100.00
2023-04-16T08:23:50.642Z,100.00
2023-04-16T08:26:53.246Z,100.00
2023-04-16T08:29:56.612Z,100.00
2023-04-16T08:32:59.503Z,100.00
2023-04-16T08:36:03.520Z,100.00
2023-04-16T08:39:06.176Z,100.00
2023-04-16T08:42:30.781Z,100.00
2023-04-16T08:45:35.508Z,100.00
2023-04-16T08:48:39.055Z,100.00
2023-04-16T08:51:45.761Z,100.00
2023-04-16T08:54:57.619Z,100.00
2023-04-16T08:58:01.449Z,100.00
2023-04-16T09:01:05.514Z,100.00
2023-04-16T09:04:09.881Z,100.00
2023-04-16T09:07:13.179Z,100.00
2023-04-16T09:10:16.612Z,100.00
2023-04-16T09:13:20.673Z,100.00
2023-04-16T09:16:24.752Z,100.00
2023-04-16T09:19:28.704Z,100.00
2023-04-16T09:22:31.666Z,100.00
2023-04-16T09:25:35.195Z,100.00
2023-04-16T09:28:41.051Z,100.00
2023-04-16T09:32:02.318Z,100.00
2023-04-16T09:35:05.909Z,100.00
2023-04-16T09:38:08.805Z,100.00
2023-04-16T09:41:11.447Z,100.00
2023-04-16T09:44:14.364Z,100.00
2023-04-16T09:47:17.213Z,100.00
2023-04-16T09:50:20.673Z,100.00
2023-04-16T09:53:33.152Z,100.00
2023-04-16T09:56:44.434Z,100.00
2023-04-16T09:59:47.474Z,100.00
2023-04-16T10:03:02.928Z,100.00
2023-04-16T10:06:15.097Z,100.00
2023-04-16T10:09:17.679Z,100.00
2023-04-16T10:12:20.840Z,100.00
2023-04-16T10:15:23.852Z,100.00
2023-04-16T10:18:27.994Z,100.00
2023-04-16T10:21:34.251Z,100.00
2023-04-16T10:24:38.222Z,100.00
2023-04-16T10:27:41.393Z,100.00
2023-04-16T10:30:55.131Z,100.00
2023-04-16T10:33:58.910Z,100.00
2023-04-16T10:37:01.842Z,100.00
2023-04-16T10:40:22.793Z,100.00
2023-04-16T10:43:26.074Z,100.00
2023-04-16T10:46:39.106Z,100.00
2023-04-16T10:49:43.860Z,100.00
2023-04-16T10:52:46.692Z,100.00
2023-04-16T10:56:08.710Z,100.00
2023-04-16T10:59:12.491Z,100.00
2023-04-16T11:02:19.681Z,100.00
2023-04-16T11:05:23.955Z,100.00
2023-04-16T11:08:27.070Z,100.00
2023-04-16T11:11:39.673Z,100.00
2023-04-16T11:14:43.158Z,100.00
2023-04-16T11:17:54.076Z,100.00
2023-04-16T11:20:57.252Z,100.00
2023-04-16T11:24:00.552Z,99.63
2023-04-16T11:27:03.832Z,100.00
2023-04-16T11:30:11.275Z,97.63
2023-04-16T11:33:14.360Z,98.75
2023-04-16T11:36:16.969Z,94.93
2023-04-16T11:39:24.383Z,97.36
2023-04-16T11:42:28.524Z,96.80
2023-04-16T11:45:31.905Z,95.86
2023-04-16T11:48:48.399Z,97.16
2023-04-16T11:51:53.308Z,95.54
2023-04-16T11:54:57.142Z,95.54
2023-04-16T11:58:11.956Z,96.75
2023-04-16T12:01:21.467Z,95.15
2023-04-16T12:04:26.824Z,93.41
2023-04-16T12:07:29.834Z,88.51
2023-04-16T12:10:37.502Z,91.25
2023-04-16T12:13:40.477Z,91.44
2023-04-16T12:16:43.433Z,91.29
2023-04-16T12:19:55.484Z,86.23
2023-04-16T12:23:01.433Z,85.89
2023-04-16T12:26:10.565Z,88.40
2023-04-16T12:29:21.855Z,85.07
2023-04-16T12:32:24.450Z,85.95
2023-04-16T12:35:32.378Z,84.34
2023-04-16T12:38:35.133Z,84.11
2023-04-16T12:41:39.611Z,86.71
2023-04-16T12:44:42.269Z,87.69
2023-04-16T12:47:46.452Z,87.77
2023-04-16T12:50:49.247Z,87.60
2023-04-16T12:53:53.064Z,85.49
2023-04-16T12:56:55.764Z,83.77
2023-04-16T12:59:58.912Z,85.14
2023-04-16T13:03:01.862Z,85.86
2023-04-16T13:06:04.931Z,83.28
2023-04-16T13:09:07.912Z,82.89
2023-04-16T13:12:11.087Z,84.01
2023-04-16T13:15:14.070Z,85.55
2023-04-16T13:18:17.072Z,86.68
2023-04-16T13:21:19.810Z,87.00
2023-04-16T13:24:23.725Z,86.74
2023-04-16T13:27:26.668Z,87.50
2023-04-16T13:30:29.722Z,87.75
2023-04-16T13:33:32.591Z,89.29
2023-04-16T13:36:35.783Z,89.86
2023-04-16T13:39:38.444Z,89.52
2023-04-16T13:42:41.423Z,90.80
2023-04-16T13:45:44.191Z,89.53
2023-04-16T13:48:47.403Z,87.75
2023-04-16T13:51:50.098Z,87.71
2023-04-16T13:54:53.126Z,88.00
2023-04-16T13:57:56.455Z,86.88
2023-04-16T14:00:59.682Z,88.74
2023-04-16T14:04:06.827Z,89.52
2023-04-16T14:07:09.765Z,90.54
2023-04-16T14:10:12.842Z,89.67
2023-04-16T14:13:16.103Z,91.15
2023-04-16T14:16:19.269Z,90.81
2023-04-16T14:19:22.123Z,91.60
2023-04-16T14:22:25.131Z,92.59
2023-04-16T14:25:28.565Z,93.59
2023-04-16T14:28:31.680Z,94.01
2023-04-16T14:31:34.346Z,94.84
2023-04-16T14:34:37.420Z,96.12
2023-04-16T14:37:40.914Z,97.47
2023-04-16T14:40:43.810Z,97.35
2023-04-16T14:43:46.657Z,98.36
2023-04-16T14:46:49.605Z,99.21
2023-04-16T14:49:52.311Z,100.00
2023-04-16T14:52:55.925Z,100.00
2023-04-16T14:55:59.099Z,100.00
2023-04-16T14:59:02.166Z,100.00
2023-04-16T15:02:05.006Z,100.00
2023-04-16T15:05:10.502Z,100.00
2023-04-16T15:08:13.309Z,100.00
2023-04-16T15:11:16.277Z,100.00
2023-04-16T15:14:19.100Z,100.00
2023-04-16T15:17:22.038Z,100.00
2023-04-16T15:20:24.721Z,100.00
2023-04-16T15:23:29.521Z,100.00
2023-04-16T15:26:32.241Z,100.00
2023-04-16T15:29:35.691Z,100.00
2023-04-16T15:32:38.495Z,100.00
2023-04-16T15:35:41.476Z,100.00
2023-04-16T15:38:44.079Z,100.00
2023-04-16T15:41:59.858Z,100.00
2023-04-16T15:45:03.036Z,100.00
2023-04-16T15:48:06.542Z,100.00
2023-04-16T15:51:09.702Z,100.00
2023-04-16T15:54:12.649Z,100.00
2023-04-16T15:57:15.468Z,100.00
2023-04-16T16:00:18.931Z,100.00
2023-04-16T16:03:22.289Z,100.00
2023-04-16T16:06:25.240Z,100.00
2023-04-16T16:09:28.564Z,100.00
2023-04-16T16:12:31.701Z,100.00
2023-04-16T16:15:35.078Z,100.00
2023-04-16T16:18:38.033Z,100.00
2023-04-16T16:21:41.755Z,100.00
2023-04-16T16:24:44.440Z,100.00
2023-04-16T16:27:47.451Z,100.00
2023-04-16T16:30:51.285Z,100.00
2023-04-16T16:33:54.325Z,100.00
2023-04-16T16:36:56.904Z,100.00
2023-04-16T16:39:59.980Z,100.00
2023-04-16T16:43:02.891Z,100.00
2023-04-16T16:46:07.557Z,100.00
2023-04-16T16:49:10.884Z,100.00
2023-04-16T16:52:14.239Z,100.00
2023-04-16T16:55:18.663Z,100.00
2023-04-16T16:58:21.918Z,100.00
2023-04-16T17:01:28.538Z,100.00
2023-04-16T17:04:31.648Z,100.00
2023-04-16T17:07:34.339Z,100.00
2023-04-16T17:10:37.366Z,100.00
2023-04-16T17:13:40.519Z,100.00
2023-04-16T17:16:46.453Z,100.00
2023-04-16T17:19:49.222Z,100.00
2023-04-16T17:22:52.299Z,100.00
2023-04-16T17:25:54.916Z,100.00
2023-04-16T17:28:59.371Z,100.00
2023-04-16T17:32:02.104Z,100.00
2023-04-16T17:35:06.893Z,100.00
2023-04-16T17:38:09.703Z,100.00
2023-04-16T17:41:12.677Z,100.00
2023-04-16T17:44:15.393Z,100.00
2023-04-16T17:47:18.502Z,100.00
2023-04-16T17:50:21.329Z,100.00
2023-04-16T17:53:24.353Z,100.00
2023-04-16T17:56:27.211Z,100.00
2023-04-16T17:59:30.247Z,100.00
2023-04-16T18:02:33.200Z,100.00
2023-04-16T18:05:36.259Z,100.00
2023-04-16T18:08:39.020Z,100.00
2023-04-16T18:11:42.218Z,100.00
2023-04-16T18:14:45.007Z,100.00
2023-04-16T18:17:47.985Z,100.00
2023-04-16T18:20:52.047Z,100.00
2023-04-16T18:23:55.076Z,100.00
2023-04-16T18:26:57.826Z,100.00
2023-04-16T18:30:01.367Z,100.00
2023-04-16T18:33:30.688Z,100.00
2023-04-16T18:36:27.446Z,100.00
2023-04-16T18:39:32.989Z,100.00
2023-04-16T18:42:36.314Z,100.00
2023-04-16T18:45:40.017Z,100.00
2023-04-16T18:48:44.605Z,100.00
2023-04-16T18:51:47.551Z,100.00
2023-04-16T18:54:50.669Z,100.00
2023-04-16T18:57:53.469Z,100.00
2023-04-16T19:01:00.540Z,100.00
2023-04-16T19:04:03.621Z,100.00
2023-04-16T19:07:06.636Z,100.00
2023-04-16T19:10:09.646Z,100.00
2023-04-16T19:13:12.711Z,100.00
2023-04-16T19:16:15.857Z,100.00
2023-04-16T19:19:18.922Z,100.00
2023-04-16T19:22:21.688Z,100.00
2023-04-16T19:25:24.774Z,100.00
2023-04-16T19:28:27.536Z,100.00
2023-04-16T19:31:30.783Z,100.00
2023-04-16T19:34:33.454Z,100.00
2023-04-16T19:37:36.435Z,100.00
2023-04-16T19:40:40.000Z,100.00
2023-04-16T19:43:43.088Z,100.00
2023-04-16T19:46:46.187Z,100.00
2023-04-16T19:49:49.153Z,100.00
2023-04-16T19:52:52.072Z,100.00
2023-04-16T19:55:55.120Z,100.00
2023-04-16T19:59:00.945Z,100.00
2023-04-16T20:02:04.373Z,100.00
2023-04-16T20:05:07.698Z,100.00
2023-04-16T20:08:10.441Z,100.00
2023-04-16T20:11:13.443Z,100.00
2023-04-16T20:14:17.322Z,100.00
2023-04-16T20:17:20.282Z,100.00
2023-04-16T20:20:23.635Z,100.00
2023-04-16T20:23:26.666Z,100.00
2023-04-16T20:26:34.165Z,100.00
2023-04-16T20:29:37.133Z,100.00
2023-04-16T20:32:39.872Z,100.00
2023-04-16T20:35:42.886Z,100.00
2023-04-16T20:38:46.650Z,100.00
2023-04-16T20:41:56.697Z,100.00
2023-04-16T20:45:00.747Z,100.00
2023-04-16T20:48:13.043Z,100.00
2023-04-16T20:51:15.969Z,100.00
2023-04-16T20:54:19.125Z,100.00
2023-04-16T20:57:21.845Z,100.00
2023-04-16T21:00:24.815Z,100.00
2023-04-16T21:03:27.711Z,100.00
2023-04-16T21:06:32.988Z,100.00
2023-04-16T21:09:35.752Z,100.00
2023-04-16T21:12:38.993Z,100.00
2023-04-16T21:15:43.333Z,100.00
2023-04-16T21:18:46.522Z,100.00
2023-04-16T21:21:49.298Z,100.00
2023-04-16T21:24:52.181Z,100.00
2023-04-16T21:27:54.930Z,100.00
2023-04-16T21:30:57.823Z,100.00
2023-04-16T21:34:00.771Z,100.00
2023-04-16T21:37:03.930Z,100.00
2023-04-16T21:40:07.207Z,100.00
2023-04-16T21:43:10.168Z,100.00
2023-04-16T21:46:12.831Z,100.00
2023-04-16T21:49:15.830Z,100.00
2023-04-16T21:52:22.284Z,100.00
2023-04-16T21:55:25.762Z,100.00
2023-04-16T21:58:28.567Z,100.00
2023-04-16T22:01:31.620Z,100.00
2023-04-16T22:04:38.590Z,100.00
2023-04-16T22:07:41.346Z,100.00
2023-04-16T22:10:44.300Z,100.00
2023-04-16T22:13:47.675Z,100.00
2023-04-16T22:16:52.263Z,100.00
2023-04-16T22:19:55.192Z,100.00
2023-04-16T22:22:58.747Z,100.00
2023-04-16T22:26:02.727Z,100.00
2023-04-16T22:29:06.625Z,100.00
2023-04-16T22:32:09.966Z,100.00
2023-04-16T22:35:13.201Z,100.00
2023-04-16T22:38:16.568Z,100.00
2023-04-16T22:41:19.828Z,100.00
2023-04-16T22:44:22.651Z,100.00
2023-04-16T22:47:25.868Z,100.00
2023-04-16T22:50:31.194Z,100.00
2023-04-16T22:53:37.596Z,100.00
2023-04-16T22:56:40.370Z,100.00
2023-04-16T22:59:43.518Z,100.00
2023-04-16T23:02:46.745Z,100.00
2023-04-16T23:05:49.798Z,100.00
2023-04-16T23:08:52.529Z,100.00
2023-04-16T23:11:56.297Z,100.00
2023-04-16T23:15:00.557Z,100.00
2023-04-16T23:18:03.983Z,100.00
2023-04-16T23:21:06.714Z,100.00
2023-04-16T23:24:09.711Z,100.00
2023-04-16T23:27:12.304Z,100.00
2023-04-16T23:30:15.827Z,100.00
2023-04-16T23:33:18.793Z,100.00
2023-04-16T23:36:21.835Z,100.00
2023-04-16T23:39:24.537Z,100.00
2023-04-16T23:42:27.544Z,100.00
2023-04-16T23:45:30.479Z,100.00
2023-04-16T23:48:33.647Z,100.00
2023-04-16T23:51:36.994Z,100.00
2023-04-16T23:54:40.183Z,100.00
2023-04-16T23:57:42.814Z,100.00
